createdAt,value
2022-11-04T08:42:53.610Z,12.50
2022-11-04T08:45:22.872Z,12.80
2022-11-04T08:47:51.851Z,13.20
2022-11-04T08:50:20.923Z,13.50
2022-11-04T08:52:49.688Z,13.70
2022-11-04T08:55:18.401Z,13.90
2022-11-04T08:57:47.012Z,13.90
2022-11-04T09:00:17.881Z,13.70
2022-11-04T09:02:46.577Z,13.80
2022-11-04T09:05:19.417Z,13.80
2022-11-04T09:07:48.246Z,13.70
2022-11-04T09:10:17.485Z,13.90
2022-11-04T09:12:46.666Z,14.10
2022-11-04T09:15:16.890Z,14.40
2022-11-04T09:17:45.725Z,14.60
2022-11-04T09:20:14.505Z,14.90
2022-11-04T09:22:45.908Z,14.90
2022-11-04T09:25:14.855Z,15.10
2022-11-04T09:27:43.569Z,15.50
2022-11-04T09:30:13.366Z,15.90
2022-11-04T09:32:45.531Z,16.00
2022-11-04T09:35:17.966Z,16.00
2022-11-04T09:37:46.910Z,16.10
2022-11-04T09:40:18.746Z,15.90
2022-11-04T09:43:00.068Z,16.00
2022-11-04T09:45:30.847Z,15.80
2022-11-04T09:48:08.992Z,15.60
2022-11-04T09:50:46.687Z,15.50
2022-11-04T09:53:20.939Z,15.70
2022-11-04T09:55:55.912Z,15.80
2022-11-04T09:58:24.817Z,15.70
2022-11-04T10:00:59.273Z,15.40
2022-11-04T10:03:45.147Z,15.10
2022-11-04T10:06:22.587Z,14.70
2022-11-04T10:09:03.127Z,14.60
2022-11-04T10:11:39.991Z,14.40
2022-11-04T10:14:42.282Z,14.30
2022-11-04T10:17:28.659Z,14.30
2022-11-04T10:20:13.898Z,14.20
2022-11-04T10:22:53.127Z,14.10
2022-11-04T10:25:24.762Z,14.20
2022-11-04T10:27:54.281Z,14.30
2022-11-04T10:30:25.243Z,14.40
2022-11-04T10:33:00.807Z,14.50
2022-11-04T10:35:36.048Z,14.60
2022-11-04T10:38:21.004Z,14.80
2022-11-04T10:40:51.962Z,15.10
2022-11-04T10:43:27.683Z,15.40
2022-11-04T10:46:07.764Z,15.50
2022-11-04T10:48:42.818Z,15.40
2022-11-04T10:51:13.054Z,15.20
2022-11-04T10:53:41.710Z,15.10
2022-11-04T10:56:19.652Z,14.80
2022-11-04T10:58:49.527Z,14.60
2022-11-04T11:01:27.147Z,14.60
2022-11-04T11:03:56.403Z,14.50
2022-11-04T11:06:29.849Z,14.50
2022-11-04T11:09:01.181Z,14.70
2022-11-04T11:11:45.469Z,14.90
2022-11-04T11:14:19.670Z,15.10
2022-11-04T11:16:48.495Z,15.10
2022-11-04T11:19:19.854Z,15.10
2022-11-04T11:21:51.722Z,15.20
2022-11-04T11:24:22.696Z,15.40
2022-11-04T11:26:53.364Z,15.50
2022-11-04T11:29:25.701Z,15.50
2022-11-04T11:31:56.287Z,15.50
2022-11-04T11:34:28.122Z,15.40
2022-11-04T11:36:59.161Z,15.40
2022-11-04T11:39:30.345Z,15.40
2022-11-04T11:42:02.212Z,15.30
2022-11-04T11:44:35.046Z,14.90
2022-11-04T11:47:06.954Z,14.60
2022-11-04T11:49:38.200Z,14.40
2022-11-04T11:52:34.236Z,14.30
2022-11-04T11:55:08.982Z,15.10
2022-11-04T12:00:47.154Z,16.90
2022-11-04T12:03:26.939Z,16.50
2022-11-04T12:09:16.932Z,15.50
2022-11-04T12:12:08.817Z,15.10
2022-11-04T12:14:58.642Z,15.10
2022-11-04T12:17:38.642Z,15.40
2022-11-04T12:20:23.033Z,15.30
2022-11-04T12:22:59.913Z,15.30
2022-11-04T12:25:42.483Z,15.30
2022-11-04T12:28:22.498Z,15.30
2022-11-04T12:31:05.301Z,15.20
2022-11-04T12:33:40.995Z,15.10
2022-11-04T12:36:29.591Z,15.20
2022-11-04T12:39:13.837Z,15.10
2022-11-04T12:42:19.545Z,15.40
2022-11-04T12:44:48.475Z,15.50
2022-11-04T12:47:27.739Z,16.40
2022-11-04T12:50:14.556Z,17.90
2022-11-04T12:52:58.962Z,19.30
2022-11-04T12:55:43.967Z,19.90
2022-11-04T12:58:24.462Z,19.80
2022-11-04T13:00:59.840Z,19.10
2022-11-04T13:03:34.044Z,18.30
2022-11-04T13:06:07.124Z,17.90
2022-11-04T13:08:44.718Z,17.70
2022-11-04T13:11:24.634Z,17.30
2022-11-04T13:14:03.273Z,17.70
2022-11-04T13:16:35.513Z,18.20
2022-11-04T13:19:04.368Z,18.20
2022-11-04T13:21:37.723Z,18.00
2022-11-04T13:24:09.195Z,17.00
2022-11-04T13:26:37.933Z,17.20
2022-11-04T13:29:13.901Z,17.30
2022-11-04T13:31:51.778Z,16.80
2022-11-04T13:34:33.375Z,16.10
2022-11-04T13:37:13.433Z,15.70
2022-11-04T13:39:46.516Z,15.30
2022-11-04T13:42:42.353Z,14.90
2022-11-04T13:45:16.441Z,14.70
2022-11-04T13:47:50.524Z,14.60
2022-11-04T13:50:36.857Z,14.80
2022-11-04T13:53:07.208Z,14.70
2022-11-04T13:55:36.676Z,14.60
2022-11-04T13:58:08.099Z,14.40
2022-11-04T14:00:39.996Z,14.40
2022-11-04T14:03:41.102Z,14.50
2022-11-04T14:06:10.898Z,14.50
2022-11-04T14:09:18.083Z,14.40
2022-11-04T14:12:31.917Z,14.20
2022-11-04T14:15:14.844Z,14.20
2022-11-04T14:18:12.110Z,14.10
2022-11-04T14:21:07.881Z,14.20
2022-11-04T14:23:38.379Z,14.20
2022-11-04T14:26:09.216Z,14.10
2022-11-04T14:28:38.314Z,14.10
2022-11-04T14:31:12.552Z,14.00
2022-11-04T14:33:55.005Z,14.30
2022-11-04T14:36:37.059Z,14.20
2022-11-04T14:39:09.475Z,14.30
2022-11-04T14:42:00.504Z,14.10
2022-11-04T14:44:33.261Z,14.10
2022-11-04T14:47:07.994Z,14.10
2022-11-04T14:49:47.234Z,14.10
2022-11-04T14:52:25.595Z,14.10
2022-11-04T14:54:58.957Z,14.00
2022-11-04T14:57:31.034Z,14.00
